Huvudsida
METAR-TAF:

METAR-TAF

Flygplatser :

Pohnpei International Airport

Pohnpei, Mikronesien

latitud: 06-59N, longitud: 158-12E, höjd: 2 m

Aktuellt väderrapport

Denna rapport gjordes för 7 timmar och 31 minuter sedan, klockan 03:50 UTC
Vind 9 kt från ost
Temperatur 31°C
Fuktighet 71%
Tryck 1010 hPa
Sikt: 24.1 km
Brutna moln på en höjd av 1800 ft, Högtornande cumulus.
Brutna moln på en höjd av 30000 ft

METAR: PTPN 190350Z 08009KT 15SM BKN018TCU BKN300 31/25 A2982 RMK TCU SE LAST

Tid: 22:21 (11:21 UTC)

Väderprognos

Denna rapport gjordes för 9 timmar och 33 minuter sedan, klockan 01:48 UTC
Prognos gäller från 19 kl. 02 UTC till 19 kl. 24 UTC
Vind 9 kt från ost
Sikt: 10 km
Spridda moln på en höjd av 1800 ft
Spridda moln på en höjd av 13000 ft

TAF: PTPN 190148Z 1902/1924 09009KT P6SM SCT018 SCT130

Aktuella väderrapporter och prognoser från 4000 flygplatser (METAR- och TAF-rapporter).

De tillgängliga stationerna syns som gula och röda prickar på kartan.

För musen över prickarna för att se namnen på stationerna.

Klicka sedan för att få väderrapporter och prognoser.

För att ändra kartan: Klicka på de gröna knapparna med ett svart kors på för att zooma in; den gröna knappen med ett streck på för att zooma ut; eller på de gröna pilarna för angränsande kartor.


METAR-TAF: